sensor_id;sensor_type;location;lat;lon;timestamp;P1;durP1;ratioP1;P2;durP2;ratioP2
32236;SDS011;18726;44.732;10.550;2024-01-27T00:02:28;69.28;;;45.92;;
32236;SDS011;18726;44.732;10.550;2024-01-27T00:05:31;75.28;;;41.75;;
32236;SDS011;18726;44.732;10.550;2024-01-27T00:08:35;64.40;;;45.90;;
32236;SDS011;18726;44.732;10.550;2024-01-27T00:11:39;77.68;;;50.58;;
32236;SDS011;18726;44.732;10.550;2024-01-27T00:14:42;68.60;;;46.97;;
32236;SDS011;18726;44.732;10.550;2024-01-27T00:17:47;64.13;;;49.00;;
32236;SDS011;18726;44.732;10.550;2024-01-27T00:20:51;73.10;;;49.38;;
32236;SDS011;18726;44.732;10.550;2024-01-27T00:23:55;68.00;;;48.63;;
32236;SDS011;18726;44.732;10.550;2024-01-27T00:27:03;69.05;;;45.05;;
32236;SDS011;18726;44.732;10.550;2024-01-27T00:30:07;73.90;;;49.53;;
32236;SDS011;18726;44.732;10.550;2024-01-27T00:33:11;65.07;;;47.63;;
32236;SDS011;18726;44.732;10.550;2024-01-27T00:36:15;59.88;;;46.22;;
32236;SDS011;18726;44.732;10.550;2024-01-27T00:39:19;66.30;;;48.45;;
32236;SDS011;18726;44.732;10.550;2024-01-27T00:42:23;58.17;;;45.88;;
32236;SDS011;18726;44.732;10.550;2024-01-27T00:45:27;56.63;;;45.00;;
32236;SDS011;18726;44.732;10.550;2024-01-27T00:48:32;60.05;;;41.25;;
32236;SDS011;18726;44.732;10.550;2024-01-27T00:51:35;55.33;;;43.55;;
32236;SDS011;18726;44.732;10.550;2024-01-27T00:54:39;60.00;;;47.50;;
32236;SDS011;18726;44.732;10.550;2024-01-27T00:57:42;54.53;;;43.05;;
32236;SDS011;18726;44.732;10.550;2024-01-27T01:00:46;56.22;;;43.35;;
32236;SDS011;18726;44.732;10.550;2024-01-27T01:03:50;54.55;;;37.53;;
32236;SDS011;18726;44.732;10.550;2024-01-27T01:06:53;44.20;;;34.95;;
32236;SDS011;18726;44.732;10.550;2024-01-27T01:09:57;52.00;;;39.03;;
32236;SDS011;18726;44.732;10.550;2024-01-27T01:13:01;46.85;;;38.10;;
32236;SDS011;18726;44.732;10.550;2024-01-27T01:16:05;48.42;;;39.70;;
32236;SDS011;18726;44.732;10.550;2024-01-27T01:19:11;53.28;;;36.25;;
32236;SDS011;18726;44.732;10.550;2024-01-27T01:22:14;50.83;;;39.78;;
32236;SDS011;18726;44.732;10.550;2024-01-27T01:25:19;46.35;;;38.15;;
32236;SDS011;18726;44.732;10.550;2024-01-27T01:28:23;55.53;;;41.70;;
32236;SDS011;18726;44.732;10.550;2024-01-27T01:31:27;48.47;;;37.97;;
32236;SDS011;18726;44.732;10.550;2024-01-27T01:34:30;44.90;;;35.20;;
32236;SDS011;18726;44.732;10.550;2024-01-27T01:37:38;43.60;;;36.42;;
32236;SDS011;18726;44.732;10.550;2024-01-27T01:40:42;44.45;;;35.38;;
32236;SDS011;18726;44.732;10.550;2024-01-27T01:43:46;53.95;;;37.17;;
32236;SDS011;18726;44.732;10.550;2024-01-27T01:46:49;47.42;;;36.30;;
32236;SDS011;18726;44.732;10.550;2024-01-27T01:49:53;47.80;;;35.38;;
32236;SDS011;18726;44.732;10.550;2024-01-27T01:52:58;41.85;;;34.55;;
32236;SDS011;18726;44.732;10.550;2024-01-27T01:56:02;38.50;;;34.03;;
32236;SDS011;18726;44.732;10.550;2024-01-27T01:59:07;39.80;;;35.25;;
32236;SDS011;18726;44.732;10.550;2024-01-27T02:02:12;43.38;;;33.13;;
32236;SDS011;18726;44.732;10.550;2024-01-27T02:05:16;44.60;;;33.47;;
32236;SDS011;18726;44.732;10.550;2024-01-27T02:08:20;40.67;;;33.45;;
32236;SDS011;18726;44.732;10.550;2024-01-27T02:11:24;45.78;;;33.78;;
32236;SDS011;18726;44.732;10.550;2024-01-27T02:14:28;43.15;;;36.10;;
32236;SDS011;18726;44.732;10.550;2024-01-27T02:17:32;42.45;;;34.83;;
32236;SDS011;18726;44.732;10.550;2024-01-27T02:20:35;38.35;;;33.25;;
32236;SDS011;18726;44.732;10.550;2024-01-27T02:23:40;47.15;;;36.25;;
32236;SDS011;18726;44.732;10.550;2024-01-27T02:26:44;44.92;;;33.80;;
32236;SDS011;18726;44.732;10.550;2024-01-27T02:29:47;40.05;;;32.40;;
32236;SDS011;18726;44.732;10.550;2024-01-27T02:32:55;40.20;;;35.42;;
32236;SDS011;18726;44.732;10.550;2024-01-27T02:35:59;47.00;;;39.17;;
32236;SDS011;18726;44.732;10.550;2024-01-27T02:39:03;52.65;;;40.85;;
32236;SDS011;18726;44.732;10.550;2024-01-27T02:42:06;46.47;;;36.05;;
32236;SDS011;18726;44.732;10.550;2024-01-27T02:45:10;38.88;;;33.35;;
32236;SDS011;18726;44.732;10.550;2024-01-27T02:48:17;44.72;;;35.97;;
32236;SDS011;18726;44.732;10.550;2024-01-27T02:51:20;48.40;;;37.47;;
32236;SDS011;18726;44.732;10.550;2024-01-27T02:54:24;45.33;;;34.78;;
32236;SDS011;18726;44.732;10.550;2024-01-27T02:57:29;41.20;;;34.85;;
32236;SDS011;18726;44.732;10.550;2024-01-27T03:00:33;38.03;;;31.27;;
32236;SDS011;18726;44.732;10.550;2024-01-27T03:03:37;39.55;;;34.97;;
32236;SDS011;18726;44.732;10.550;2024-01-27T03:06:40;47.85;;;38.88;;
32236;SDS011;18726;44.732;10.550;2024-01-27T03:09:44;53.60;;;39.35;;
32236;SDS011;18726;44.732;10.550;2024-01-27T03:12:47;41.22;;;35.33;;
32236;SDS011;18726;44.732;10.550;2024-01-27T03:15:52;42.85;;;33.35;;
32236;SDS011;18726;44.732;10.550;2024-01-27T03:18:56;47.75;;;39.55;;
32236;SDS011;18726;44.732;10.550;2024-01-27T03:21:59;45.55;;;38.00;;
32236;SDS011;18726;44.732;10.550;2024-01-27T03:25:03;43.72;;;35.88;;
32236;SDS011;18726;44.732;10.550;2024-01-27T03:28:07;45.78;;;36.45;;
32236;SDS011;18726;44.732;10.550;2024-01-27T03:31:11;49.15;;;39.83;;
32236;SDS011;18726;44.732;10.550;2024-01-27T03:34:14;43.47;;;37.80;;
32236;SDS011;18726;44.732;10.550;2024-01-27T03:37:18;43.42;;;33.65;;
32236;SDS011;18726;44.732;10.550;2024-01-27T03:40:22;43.25;;;34.95;;
32236;SDS011;18726;44.732;10.550;2024-01-27T03:43:25;46.00;;;38.08;;
32236;SDS011;18726;44.732;10.550;2024-01-27T03:46:29;43.45;;;37.30;;
32236;SDS011;18726;44.732;10.550;2024-01-27T03:49:33;45.30;;;36.90;;
32236;SDS011;18726;44.732;10.550;2024-01-27T03:52:36;42.45;;;34.95;;
32236;SDS011;18726;44.732;10.550;2024-01-27T03:55:40;41.78;;;35.80;;
32236;SDS011;18726;44.732;10.550;2024-01-27T03:58:43;42.20;;;35.83;;
32236;SDS011;18726;44.732;10.550;2024-01-27T04:01:47;40.08;;;32.75;;
32236;SDS011;18726;44.732;10.550;2024-01-27T04:04:50;36.55;;;31.55;;
32236;SDS011;18726;44.732;10.550;2024-01-27T04:07:54;44.03;;;34.38;;
32236;SDS011;18726;44.732;10.550;2024-01-27T04:10:58;33.13;;;28.50;;
32236;SDS011;18726;44.732;10.550;2024-01-27T04:14:02;39.25;;;33.33;;
32236;SDS011;18726;44.732;10.550;2024-01-27T04:17:06;36.90;;;32.95;;
32236;SDS011;18726;44.732;10.550;2024-01-27T04:20:10;41.30;;;32.97;;
32236;SDS011;18726;44.732;10.550;2024-01-27T04:23:15;37.85;;;33.63;;
32236;SDS011;18726;44.732;10.550;2024-01-27T04:26:18;36.67;;;32.25;;
32236;SDS011;18726;44.732;10.550;2024-01-27T04:29:22;39.42;;;33.15;;
32236;SDS011;18726;44.732;10.550;2024-01-27T04:32:26;39.90;;;32.10;;
32236;SDS011;18726;44.732;10.550;2024-01-27T04:35:30;45.65;;;36.78;;
32236;SDS011;18726;44.732;10.550;2024-01-27T04:38:33;41.72;;;34.38;;
32236;SDS011;18726;44.732;10.550;2024-01-27T04:41:43;40.03;;;34.05;;
32236;SDS011;18726;44.732;10.550;2024-01-27T04:44:47;44.70;;;35.17;;
32236;SDS011;18726;44.732;10.550;2024-01-27T04:47:50;37.60;;;31.23;;
32236;SDS011;18726;44.732;10.550;2024-01-27T04:50:53;41.95;;;33.17;;
32236;SDS011;18726;44.732;10.550;2024-01-27T04:53:57;36.65;;;32.33;;
32236;SDS011;18726;44.732;10.550;2024-01-27T04:57:00;40.92;;;33.17;;
32236;SDS011;18726;44.732;10.550;2024-01-27T05:00:04;44.60;;;36.92;;
32236;SDS011;18726;44.732;10.550;2024-01-27T05:03:10;42.67;;;34.83;;
32236;SDS011;18726;44.732;10.550;2024-01-27T05:06:17;45.00;;;38.65;;
32236;SDS011;18726;44.732;10.550;2024-01-27T05:09:21;42.40;;;36.75;;
32236;SDS011;18726;44.732;10.550;2024-01-27T05:12:24;40.33;;;34.05;;
32236;SDS011;18726;44.732;10.550;2024-01-27T05:15:28;39.38;;;32.42;;
32236;SDS011;18726;44.732;10.550;2024-01-27T05:18:31;43.55;;;34.97;;
32236;SDS011;18726;44.732;10.550;2024-01-27T05:21:35;45.08;;;36.40;;
32236;SDS011;18726;44.732;10.550;2024-01-27T05:24:39;53.53;;;36.60;;
32236;SDS011;18726;44.732;10.550;2024-01-27T05:27:43;44.15;;;37.67;;
32236;SDS011;18726;44.732;10.550;2024-01-27T05:30:47;48.83;;;39.85;;
32236;SDS011;18726;44.732;10.550;2024-01-27T05:33:50;46.63;;;38.78;;
32236;SDS011;18726;44.732;10.550;2024-01-27T05:36:53;49.63;;;39.60;;
32236;SDS011;18726;44.732;10.550;2024-01-27T05:39:57;47.55;;;38.45;;
32236;SDS011;18726;44.732;10.550;2024-01-27T05:43:01;40.80;;;33.83;;
32236;SDS011;18726;44.732;10.550;2024-01-27T05:46:04;47.17;;;37.10;;
32236;SDS011;18726;44.732;10.550;2024-01-27T05:49:08;43.85;;;35.17;;
32236;SDS011;18726;44.732;10.550;2024-01-27T05:52:12;49.08;;;39.13;;
32236;SDS011;18726;44.732;10.550;2024-01-27T05:55:16;45.10;;;36.95;;
32236;SDS011;18726;44.732;10.550;2024-01-27T05:58:20;44.40;;;36.03;;
32236;SDS011;18726;44.732;10.550;2024-01-27T06:01:24;37.33;;;33.20;;
32236;SDS011;18726;44.732;10.550;2024-01-27T06:04:28;37.28;;;32.88;;
32236;SDS011;18726;44.732;10.550;2024-01-27T06:07:33;39.45;;;34.30;;
32236;SDS011;18726;44.732;10.550;2024-01-27T06:10:36;41.72;;;35.10;;
32236;SDS011;18726;44.732;10.550;2024-01-27T06:13:39;42.45;;;35.05;;
32236;SDS011;18726;44.732;10.550;2024-01-27T06:16:44;37.55;;;30.00;;
32236;SDS011;18726;44.732;10.550;2024-01-27T06:19:47;41.72;;;34.13;;
32236;SDS011;18726;44.732;10.550;2024-01-27T06:22:51;40.30;;;34.40;;
32236;SDS011;18726;44.732;10.550;2024-01-27T06:25:57;39.17;;;32.63;;
32236;SDS011;18726;44.732;10.550;2024-01-27T06:29:01;38.08;;;31.70;;
32236;SDS011;18726;44.732;10.550;2024-01-27T06:32:05;36.40;;;31.10;;
32236;SDS011;18726;44.732;10.550;2024-01-27T06:35:09;43.05;;;35.78;;
32236;SDS011;18726;44.732;10.550;2024-01-27T06:38:13;33.95;;;30.02;;
32236;SDS011;18726;44.732;10.550;2024-01-27T06:41:17;37.47;;;32.55;;
32236;SDS011;18726;44.732;10.550;2024-01-27T06:44:20;34.25;;;30.60;;
32236;SDS011;18726;44.732;10.550;2024-01-27T06:47:23;37.35;;;29.70;;
32236;SDS011;18726;44.732;10.550;2024-01-27T06:50:27;38.67;;;30.77;;
32236;SDS011;18726;44.732;10.550;2024-01-27T06:53:31;41.33;;;33.47;;
32236;SDS011;18726;44.732;10.550;2024-01-27T06:56:34;41.97;;;32.65;;
32236;SDS011;18726;44.732;10.550;2024-01-27T06:59:38;44.78;;;32.92;;
32236;SDS011;18726;44.732;10.550;2024-01-27T07:02:42;46.58;;;37.03;;
32236;SDS011;18726;44.732;10.550;2024-01-27T07:05:45;48.10;;;36.78;;
32236;SDS011;18726;44.732;10.550;2024-01-27T07:08:49;41.88;;;33.78;;
32236;SDS011;18726;44.732;10.550;2024-01-27T07:11:52;52.75;;;40.40;;
32236;SDS011;18726;44.732;10.550;2024-01-27T07:14:55;45.28;;;35.92;;
32236;SDS011;18726;44.732;10.550;2024-01-27T07:17:59;41.22;;;31.92;;
32236;SDS011;18726;44.732;10.550;2024-01-27T07:21:03;40.03;;;33.15;;
32236;SDS011;18726;44.732;10.550;2024-01-27T07:24:07;46.47;;;34.67;;
32236;SDS011;18726;44.732;10.550;2024-01-27T07:27:14;36.60;;;31.27;;
32236;SDS011;18726;44.732;10.550;2024-01-27T07:30:17;35.50;;;27.90;;
32236;SDS011;18726;44.732;10.550;2024-01-27T07:33:21;34.53;;;29.55;;
32236;SDS011;18726;44.732;10.550;2024-01-27T07:36:25;34.20;;;29.25;;
32236;SDS011;18726;44.732;10.550;2024-01-27T07:39:29;37.60;;;30.63;;
32236;SDS011;18726;44.732;10.550;2024-01-27T07:42:32;34.70;;;30.90;;
32236;SDS011;18726;44.732;10.550;2024-01-27T07:45:36;37.85;;;31.30;;
32236;SDS011;18726;44.732;10.550;2024-01-27T07:48:39;34.53;;;30.80;;
32236;SDS011;18726;44.732;10.550;2024-01-27T07:51:43;36.35;;;30.38;;
32236;SDS011;18726;44.732;10.550;2024-01-27T07:54:47;32.42;;;28.92;;
32236;SDS011;18726;44.732;10.550;2024-01-27T07:57:51;33.78;;;30.08;;
32236;SDS011;18726;44.732;10.550;2024-01-27T08:00:54;31.23;;;27.75;;
32236;SDS011;18726;44.732;10.550;2024-01-27T08:03:58;32.75;;;28.92;;
32236;SDS011;18726;44.732;10.550;2024-01-27T08:07:02;32.35;;;28.95;;
32236;SDS011;18726;44.732;10.550;2024-01-27T08:10:12;35.70;;;31.63;;
32236;SDS011;18726;44.732;10.550;2024-01-27T08:13:16;33.28;;;29.85;;
32236;SDS011;18726;44.732;10.550;2024-01-27T08:16:20;30.85;;;27.65;;
32236;SDS011;18726;44.732;10.550;2024-01-27T08:19:24;39.70;;;29.55;;
32236;SDS011;18726;44.732;10.550;2024-01-27T08:22:28;32.88;;;29.48;;
32236;SDS011;18726;44.732;10.550;2024-01-27T08:25:32;28.35;;;25.50;;
32236;SDS011;18726;44.732;10.550;2024-01-27T08:28:35;33.55;;;30.27;;
32236;SDS011;18726;44.732;10.550;2024-01-27T08:31:39;29.17;;;26.58;;
32236;SDS011;18726;44.732;10.550;2024-01-27T08:34:43;25.50;;;23.10;;
32236;SDS011;18726;44.732;10.550;2024-01-27T08:37:47;30.17;;;27.17;;
32236;SDS011;18726;44.732;10.550;2024-01-27T08:40:51;31.30;;;28.35;;
32236;SDS011;18726;44.732;10.550;2024-01-27T08:43:54;27.80;;;24.83;;
32236;SDS011;18726;44.732;10.550;2024-01-27T08:46:58;26.83;;;24.42;;
32236;SDS011;18726;44.732;10.550;2024-01-27T08:50:02;30.58;;;27.88;;
32236;SDS011;18726;44.732;10.550;2024-01-27T08:53:06;28.63;;;25.98;;
32236;SDS011;18726;44.732;10.550;2024-01-27T08:56:10;29.52;;;27.02;;
32236;SDS011;18726;44.732;10.550;2024-01-27T08:59:13;31.08;;;27.98;;
32236;SDS011;18726;44.732;10.550;2024-01-27T09:02:17;58.55;;;51.55;;
32236;SDS011;18726;44.732;10.550;2024-01-27T09:05:20;207.20;;;149.75;;
32236;SDS011;18726;44.732;10.550;2024-01-27T09:08:27;84.28;;;65.18;;
32236;SDS011;18726;44.732;10.550;2024-01-27T09:11:31;47.33;;;42.28;;
32236;SDS011;18726;44.732;10.550;2024-01-27T09:14:37;58.28;;;52.40;;
32236;SDS011;18726;44.732;10.550;2024-01-27T09:17:41;65.38;;;58.38;;
32236;SDS011;18726;44.732;10.550;2024-01-27T09:20:46;63.72;;;56.47;;
32236;SDS011;18726;44.732;10.550;2024-01-27T09:23:50;66.13;;;57.80;;
32236;SDS011;18726;44.732;10.550;2024-01-27T09:26:54;72.40;;;64.97;;
32236;SDS011;18726;44.732;10.550;2024-01-27T09:29:58;50.42;;;45.25;;
32236;SDS011;18726;44.732;10.550;2024-01-27T09:33:02;44.17;;;39.88;;
32236;SDS011;18726;44.732;10.550;2024-01-27T09:36:06;44.30;;;37.85;;
32236;SDS011;18726;44.732;10.550;2024-01-27T09:39:10;50.95;;;41.80;;
32236;SDS011;18726;44.732;10.550;2024-01-27T09:42:13;46.80;;;41.38;;
32236;SDS011;18726;44.732;10.550;2024-01-27T09:45:20;41.10;;;36.15;;
32236;SDS011;18726;44.732;10.550;2024-01-27T09:48:26;43.88;;;38.75;;
32236;SDS011;18726;44.732;10.550;2024-01-27T09:51:32;43.33;;;38.80;;
32236;SDS011;18726;44.732;10.550;2024-01-27T09:54:37;46.22;;;40.53;;
32236;SDS011;18726;44.732;10.550;2024-01-27T09:57:42;45.20;;;39.10;;
32236;SDS011;18726;44.732;10.550;2024-01-27T10:00:49;39.17;;;33.80;;
32236;SDS011;18726;44.732;10.550;2024-01-27T10:03:55;39.08;;;34.25;;
32236;SDS011;18726;44.732;10.550;2024-01-27T10:07:01;43.47;;;35.78;;
32236;SDS011;18726;44.732;10.550;2024-01-27T10:10:05;42.67;;;38.10;;
32236;SDS011;18726;44.732;10.550;2024-01-27T10:13:09;48.80;;;40.92;;
32236;SDS011;18726;44.732;10.550;2024-01-27T10:16:16;44.22;;;39.35;;
32236;SDS011;18726;44.732;10.550;2024-01-27T10:19:20;76.90;;;54.63;;
32236;SDS011;18726;44.732;10.550;2024-01-27T10:22:25;47.80;;;41.22;;
32236;SDS011;18726;44.732;10.550;2024-01-27T10:25:30;45.58;;;40.65;;
32236;SDS011;18726;44.732;10.550;2024-01-27T10:28:33;45.17;;;40.42;;
32236;SDS011;18726;44.732;10.550;2024-01-27T10:31:36;44.13;;;39.15;;
32236;SDS011;18726;44.732;10.550;2024-01-27T10:34:40;58.25;;;45.05;;
32236;SDS011;18726;44.732;10.550;2024-01-27T10:37:45;58.35;;;47.53;;
32236;SDS011;18726;44.732;10.550;2024-01-27T10:40:49;53.00;;;46.45;;
32236;SDS011;18726;44.732;10.550;2024-01-27T10:43:53;55.22;;;47.22;;
32236;SDS011;18726;44.732;10.550;2024-01-27T10:46:59;57.78;;;48.83;;
32236;SDS011;18726;44.732;10.550;2024-01-27T10:50:08;113.07;;;94.50;;
32236;SDS011;18726;44.732;10.550;2024-01-27T10:53:17;53.15;;;46.25;;
32236;SDS011;18726;44.732;10.550;2024-01-27T10:56:26;42.38;;;38.15;;
32236;SDS011;18726;44.732;10.550;2024-01-27T10:59:31;43.05;;;38.22;;
32236;SDS011;18726;44.732;10.550;2024-01-27T11:02:36;44.38;;;40.00;;
32236;SDS011;18726;44.732;10.550;2024-01-27T11:09:42;45.42;;;40.88;;
32236;SDS011;18726;44.732;10.550;2024-01-27T11:12:47;44.75;;;40.15;;
32236;SDS011;18726;44.732;10.550;2024-01-27T11:15:52;51.28;;;46.25;;
32236;SDS011;18726;44.732;10.550;2024-01-27T11:18:58;46.03;;;41.00;;
32236;SDS011;18726;44.732;10.550;2024-01-27T11:22:03;48.78;;;44.25;;
32236;SDS011;18726;44.732;10.550;2024-01-27T11:28:15;47.15;;;42.15;;
32236;SDS011;18726;44.732;10.550;2024-01-27T11:31:20;45.35;;;40.80;;
32236;SDS011;18726;44.732;10.550;2024-01-27T11:34:23;48.80;;;43.97;;
32236;SDS011;18726;44.732;10.550;2024-01-27T11:37:30;47.83;;;42.78;;
32236;SDS011;18726;44.732;10.550;2024-01-27T11:40:43;48.95;;;43.53;;
32236;SDS011;18726;44.732;10.550;2024-01-27T11:43:54;50.53;;;45.13;;
32236;SDS011;18726;44.732;10.550;2024-01-27T11:47:03;49.55;;;44.28;;
32236;SDS011;18726;44.732;10.550;2024-01-27T11:50:08;49.63;;;44.55;;
32236;SDS011;18726;44.732;10.550;2024-01-27T11:53:12;50.25;;;44.85;;
32236;SDS011;18726;44.732;10.550;2024-01-27T11:56:15;50.75;;;45.72;;
32236;SDS011;18726;44.732;10.550;2024-01-27T11:59:19;50.47;;;45.15;;
32236;SDS011;18726;44.732;10.550;2024-01-27T12:02:25;48.08;;;43.25;;
32236;SDS011;18726;44.732;10.550;2024-01-27T12:05:28;48.72;;;43.78;;
32236;SDS011;18726;44.732;10.550;2024-01-27T12:08:34;49.20;;;43.92;;
32236;SDS011;18726;44.732;10.550;2024-01-27T12:11:39;50.33;;;45.03;;
32236;SDS011;18726;44.732;10.550;2024-01-27T12:14:46;56.35;;;46.70;;
32236;SDS011;18726;44.732;10.550;2024-01-27T12:17:52;54.60;;;47.50;;
32236;SDS011;18726;44.732;10.550;2024-01-27T12:20:56;52.70;;;46.50;;
32236;SDS011;18726;44.732;10.550;2024-01-27T12:24:01;52.95;;;47.13;;
32236;SDS011;18726;44.732;10.550;2024-01-27T12:27:06;56.03;;;47.35;;
32236;SDS011;18726;44.732;10.550;2024-01-27T12:30:10;53.45;;;47.72;;
32236;SDS011;18726;44.732;10.550;2024-01-27T12:33:17;52.42;;;46.83;;
32236;SDS011;18726;44.732;10.550;2024-01-27T12:36:27;57.55;;;51.35;;
32236;SDS011;18726;44.732;10.550;2024-01-27T12:39:32;55.53;;;47.85;;
32236;SDS011;18726;44.732;10.550;2024-01-27T12:42:35;58.30;;;52.10;;
32236;SDS011;18726;44.732;10.550;2024-01-27T12:45:39;52.40;;;46.72;;
32236;SDS011;18726;44.732;10.550;2024-01-27T12:48:44;1383.80;;;734.30;;
32236;SDS011;18726;44.732;10.550;2024-01-27T12:51:51;1115.40;;;590.92;;
32236;SDS011;18726;44.732;10.550;2024-01-27T12:54:55;1999.90;;;917.97;;
32236;SDS011;18726;44.732;10.550;2024-01-27T12:57:59;1342.43;;;676.65;;
32236;SDS011;18726;44.732;10.550;2024-01-27T13:01:03;709.20;;;381.10;;
32236;SDS011;18726;44.732;10.550;2024-01-27T13:04:07;1999.90;;;999.90;;
32236;SDS011;18726;44.732;10.550;2024-01-27T13:07:10;969.05;;;604.90;;
32236;SDS011;18726;44.732;10.550;2024-01-27T13:10:14;943.08;;;592.33;;
32236;SDS011;18726;44.732;10.550;2024-01-27T13:13:18;1136.78;;;860.60;;
32236;SDS011;18726;44.732;10.550;2024-01-27T13:16:22;397.77;;;357.42;;
32236;SDS011;18726;44.732;10.550;2024-01-27T13:19:28;153.00;;;136.73;;
32236;SDS011;18726;44.732;10.550;2024-01-27T13:22:34;124.97;;;111.82;;
32236;SDS011;18726;44.732;10.550;2024-01-27T13:25:37;190.57;;;170.38;;
32236;SDS011;18726;44.732;10.550;2024-01-27T13:28:41;128.75;;;114.63;;
32236;SDS011;18726;44.732;10.550;2024-01-27T13:31:45;130.95;;;111.90;;
32236;SDS011;18726;44.732;10.550;2024-01-27T13:34:49;107.47;;;89.47;;
32236;SDS011;18726;44.732;10.550;2024-01-27T13:37:52;106.35;;;86.60;;
32236;SDS011;18726;44.732;10.550;2024-01-27T13:40:56;134.18;;;118.55;;
32236;SDS011;18726;44.732;10.550;2024-01-27T13:44:00;96.75;;;73.10;;
32236;SDS011;18726;44.732;10.550;2024-01-27T13:47:05;102.97;;;80.13;;
32236;SDS011;18726;44.732;10.550;2024-01-27T13:50:11;104.70;;;77.10;;
32236;SDS011;18726;44.732;10.550;2024-01-27T13:53:15;109.93;;;85.45;;
32236;SDS011;18726;44.732;10.550;2024-01-27T13:56:18;103.07;;;76.32;;
32236;SDS011;18726;44.732;10.550;2024-01-27T13:59:22;101.65;;;72.50;;
32236;SDS011;18726;44.732;10.550;2024-01-27T14:02:26;88.57;;;67.28;;
32236;SDS011;18726;44.732;10.550;2024-01-27T14:05:30;86.38;;;63.95;;
32236;SDS011;18726;44.732;10.550;2024-01-27T14:08:34;79.60;;;62.83;;
32236;SDS011;18726;44.732;10.550;2024-01-27T14:11:37;85.47;;;65.82;;
32236;SDS011;18726;44.732;10.550;2024-01-27T14:14:41;70.28;;;57.63;;
32236;SDS011;18726;44.732;10.550;2024-01-27T14:17:44;80.00;;;63.42;;
32236;SDS011;18726;44.732;10.550;2024-01-27T14:20:49;74.00;;;59.25;;
32236;SDS011;18726;44.732;10.550;2024-01-27T14:23:54;81.93;;;63.63;;
32236;SDS011;18726;44.732;10.550;2024-01-27T14:27:06;91.38;;;67.57;;
32236;SDS011;18726;44.732;10.550;2024-01-27T14:30:11;86.97;;;69.25;;
32236;SDS011;18726;44.732;10.550;2024-01-27T14:33:16;90.22;;;65.55;;
32236;SDS011;18726;44.732;10.550;2024-01-27T14:36:23;82.35;;;61.85;;
32236;SDS011;18726;44.732;10.550;2024-01-27T14:39:28;86.25;;;63.90;;
32236;SDS011;18726;44.732;10.550;2024-01-27T14:42:34;89.38;;;66.15;;
32236;SDS011;18726;44.732;10.550;2024-01-27T14:45:39;89.47;;;62.92;;
32236;SDS011;18726;44.732;10.550;2024-01-27T14:48:43;83.75;;;62.92;;
32236;SDS011;18726;44.732;10.550;2024-01-27T14:51:47;82.60;;;61.25;;
32236;SDS011;18726;44.732;10.550;2024-01-27T14:54:51;88.40;;;64.95;;
32236;SDS011;18726;44.732;10.550;2024-01-27T14:57:55;96.63;;;63.45;;
32236;SDS011;18726;44.732;10.550;2024-01-27T15:00:59;84.00;;;62.15;;
32236;SDS011;18726;44.732;10.550;2024-01-27T15:04:03;94.78;;;63.58;;
32236;SDS011;18726;44.732;10.550;2024-01-27T15:07:07;95.07;;;74.20;;
32236;SDS011;18726;44.732;10.550;2024-01-27T15:10:12;170.38;;;118.85;;
32236;SDS011;18726;44.732;10.550;2024-01-27T15:13:16;98.72;;;77.30;;
32236;SDS011;18726;44.732;10.550;2024-01-27T15:16:26;86.00;;;68.60;;
32236;SDS011;18726;44.732;10.550;2024-01-27T15:19:32;84.97;;;61.45;;
32236;SDS011;18726;44.732;10.550;2024-01-27T15:22:36;660.90;;;578.20;;
32236;SDS011;18726;44.732;10.550;2024-01-27T15:25:40;156.95;;;131.18;;
32236;SDS011;18726;44.732;10.550;2024-01-27T15:28:44;415.65;;;370.08;;
32236;SDS011;18726;44.732;10.550;2024-01-27T15:31:47;104.00;;;86.20;;
32236;SDS011;18726;44.732;10.550;2024-01-27T15:34:51;87.30;;;65.05;;
32236;SDS011;18726;44.732;10.550;2024-01-27T15:37:55;71.47;;;57.72;;
32236;SDS011;18726;44.732;10.550;2024-01-27T15:41:00;82.85;;;61.20;;
32236;SDS011;18726;44.732;10.550;2024-01-27T15:44:09;78.68;;;60.83;;
32236;SDS011;18726;44.732;10.550;2024-01-27T15:47:13;83.97;;;62.05;;
32236;SDS011;18726;44.732;10.550;2024-01-27T15:50:16;93.05;;;66.43;;
32236;SDS011;18726;44.732;10.550;2024-01-27T15:53:21;85.88;;;69.15;;
32236;SDS011;18726;44.732;10.550;2024-01-27T15:56:25;94.45;;;76.03;;
32236;SDS011;18726;44.732;10.550;2024-01-27T15:59:28;114.15;;;92.90;;
32236;SDS011;18726;44.732;10.550;2024-01-27T16:02:32;148.48;;;124.93;;
32236;SDS011;18726;44.732;10.550;2024-01-27T16:05:35;122.60;;;95.97;;
32236;SDS011;18726;44.732;10.550;2024-01-27T16:08:39;151.63;;;134.93;;
32236;SDS011;18726;44.732;10.550;2024-01-27T16:11:42;119.40;;;91.32;;
32236;SDS011;18726;44.732;10.550;2024-01-27T16:14:46;105.13;;;80.15;;
32236;SDS011;18726;44.732;10.550;2024-01-27T16:17:49;102.60;;;81.07;;
32236;SDS011;18726;44.732;10.550;2024-01-27T16:20:53;110.60;;;82.40;;
32236;SDS011;18726;44.732;10.550;2024-01-27T16:23:57;113.88;;;86.03;;
32236;SDS011;18726;44.732;10.550;2024-01-27T16:27:00;115.82;;;83.95;;
32236;SDS011;18726;44.732;10.550;2024-01-27T16:30:05;121.25;;;87.57;;
32236;SDS011;18726;44.732;10.550;2024-01-27T16:33:09;117.18;;;85.43;;
32236;SDS011;18726;44.732;10.550;2024-01-27T16:36:13;112.93;;;81.22;;
32236;SDS011;18726;44.732;10.550;2024-01-27T16:39:16;124.32;;;88.93;;
32236;SDS011;18726;44.732;10.550;2024-01-27T16:42:20;130.65;;;97.05;;
32236;SDS011;18726;44.732;10.550;2024-01-27T16:45:24;114.88;;;83.68;;
32236;SDS011;18726;44.732;10.550;2024-01-27T16:48:27;124.10;;;93.45;;
32236;SDS011;18726;44.732;10.550;2024-01-27T16:51:32;149.18;;;107.65;;
32236;SDS011;18726;44.732;10.550;2024-01-27T16:54:36;147.13;;;105.85;;
32236;SDS011;18726;44.732;10.550;2024-01-27T16:57:40;135.45;;;99.78;;
32236;SDS011;18726;44.732;10.550;2024-01-27T17:00:43;147.05;;;104.03;;
32236;SDS011;18726;44.732;10.550;2024-01-27T17:03:48;128.50;;;98.05;;
32236;SDS011;18726;44.732;10.550;2024-01-27T17:06:55;129.73;;;94.28;;
32236;SDS011;18726;44.732;10.550;2024-01-27T17:10:08;141.48;;;104.93;;
32236;SDS011;18726;44.732;10.550;2024-01-27T17:13:12;146.60;;;109.47;;
32236;SDS011;18726;44.732;10.550;2024-01-27T17:16:21;169.85;;;115.28;;
32236;SDS011;18726;44.732;10.550;2024-01-27T17:19:30;161.80;;;111.70;;
32236;SDS011;18726;44.732;10.550;2024-01-27T17:22:37;152.50;;;103.35;;
32236;SDS011;18726;44.732;10.550;2024-01-27T17:25:40;157.38;;;111.32;;
32236;SDS011;18726;44.732;10.550;2024-01-27T17:28:45;164.73;;;118.28;;
32236;SDS011;18726;44.732;10.550;2024-01-27T17:31:48;169.40;;;118.63;;
32236;SDS011;18726;44.732;10.550;2024-01-27T17:34:52;180.45;;;126.22;;
32236;SDS011;18726;44.732;10.550;2024-01-27T17:37:58;175.18;;;122.50;;
32236;SDS011;18726;44.732;10.550;2024-01-27T17:41:01;895.75;;;642.83;;
32236;SDS011;18726;44.732;10.550;2024-01-27T17:44:05;301.88;;;208.35;;
32236;SDS011;18726;44.732;10.550;2024-01-27T17:47:09;205.43;;;134.85;;